sensor_id;sensor_type;location;lat;lon;timestamp;P1;durP1;ratioP1;P2;durP2;ratioP2
21114;SDS011;10715;48.546;9.896;2022-09-30T00:01:36;12.60;;;7.67;;
21114;SDS011;10715;48.546;9.896;2022-09-30T00:04:04;16.53;;;7.83;;
21114;SDS011;10715;48.546;9.896;2022-09-30T00:06:31;39.33;;;11.50;;
21114;SDS011;10715;48.546;9.896;2022-09-30T00:08:59;13.17;;;8.23;;
21114;SDS011;10715;48.546;9.896;2022-09-30T00:11:30;27.10;;;9.53;;
21114;SDS011;10715;48.546;9.896;2022-09-30T00:13:58;15.40;;;9.50;;
21114;SDS011;10715;48.546;9.896;2022-09-30T00:16:26;20.63;;;8.00;;
21114;SDS011;10715;48.546;9.896;2022-09-30T00:18:55;11.50;;;8.77;;
21114;SDS011;10715;48.546;9.896;2022-09-30T00:21:21;53.50;;;12.10;;
21114;SDS011;10715;48.546;9.896;2022-09-30T00:23:48;10.33;;;7.50;;
21114;SDS011;10715;48.546;9.896;2022-09-30T00:26:15;22.87;;;9.60;;
21114;SDS011;10715;48.546;9.896;2022-09-30T00:28:43;10.87;;;8.30;;
21114;SDS011;10715;48.546;9.896;2022-09-30T00:31:11;15.63;;;8.57;;
21114;SDS011;10715;48.546;9.896;2022-09-30T00:33:39;19.33;;;8.23;;
21114;SDS011;10715;48.546;9.896;2022-09-30T00:36:06;8.53;;;7.20;;
21114;SDS011;10715;48.546;9.896;2022-09-30T00:38:32;31.17;;;9.13;;
21114;SDS011;10715;48.546;9.896;2022-09-30T00:40:58;17.93;;;10.97;;
21114;SDS011;10715;48.546;9.896;2022-09-30T00:46:08;16.60;;;8.63;;
21114;SDS011;10715;48.546;9.896;2022-09-30T00:49:02;20.87;;;8.53;;
21114;SDS011;10715;48.546;9.896;2022-09-30T00:51:37;15.97;;;10.10;;
21114;SDS011;10715;48.546;9.896;2022-09-30T00:54:07;20.00;;;9.97;;
21114;SDS011;10715;48.546;9.896;2022-09-30T00:56:38;25.43;;;10.87;;
21114;SDS011;10715;48.546;9.896;2022-09-30T00:59:11;11.00;;;9.30;;
21114;SDS011;10715;48.546;9.896;2022-09-30T01:01:40;43.50;;;10.13;;
21114;SDS011;10715;48.546;9.896;2022-09-30T01:04:13;34.00;;;9.87;;
21114;SDS011;10715;48.546;9.896;2022-09-30T01:06:42;29.33;;;9.10;;
21114;SDS011;10715;48.546;9.896;2022-09-30T01:09:09;17.23;;;9.03;;
21114;SDS011;10715;48.546;9.896;2022-09-30T01:11:35;12.60;;;8.90;;
21114;SDS011;10715;48.546;9.896;2022-09-30T01:14:03;11.70;;;8.10;;
21114;SDS011;10715;48.546;9.896;2022-09-30T01:16:37;11.87;;;8.77;;
21114;SDS011;10715;48.546;9.896;2022-09-30T01:19:23;22.23;;;10.27;;
21114;SDS011;10715;48.546;9.896;2022-09-30T01:27:46;12.57;;;8.40;;
21114;SDS011;10715;48.546;9.896;2022-09-30T01:30:30;23.97;;;8.40;;
21114;SDS011;10715;48.546;9.896;2022-09-30T01:49:32;13.07;;;8.73;;
21114;SDS011;10715;48.546;9.896;2022-09-30T01:54:54;17.43;;;7.80;;
21114;SDS011;10715;48.546;9.896;2022-09-30T01:58:15;18.67;;;9.47;;
21114;SDS011;10715;48.546;9.896;2022-09-30T02:00:23;8.33;;;6.80;;
21114;SDS011;10715;48.546;9.896;2022-09-30T02:02:57;19.97;;;7.10;;
21114;SDS011;10715;48.546;9.896;2022-09-30T02:08:13;14.90;;;8.30;;
21114;SDS011;10715;48.546;9.896;2022-09-30T02:10:52;14.47;;;8.90;;
21114;SDS011;10715;48.546;9.896;2022-09-30T02:15:58;9.50;;;7.27;;
21114;SDS011;10715;48.546;9.896;2022-09-30T02:19:00;23.63;;;8.27;;
21114;SDS011;10715;48.546;9.896;2022-09-30T02:21:29;15.20;;;6.60;;
21114;SDS011;10715;48.546;9.896;2022-09-30T02:23:59;17.30;;;7.00;;
21114;SDS011;10715;48.546;9.896;2022-09-30T02:26:30;11.77;;;5.50;;
21114;SDS011;10715;48.546;9.896;2022-09-30T02:29:01;11.90;;;6.40;;
21114;SDS011;10715;48.546;9.896;2022-09-30T02:31:40;16.00;;;6.13;;
21114;SDS011;10715;48.546;9.896;2022-09-30T02:34:28;11.00;;;5.73;;
21114;SDS011;10715;48.546;9.896;2022-09-30T02:37:04;11.93;;;6.20;;
21114;SDS011;10715;48.546;9.896;2022-09-30T02:39:40;5.30;;;4.87;;
21114;SDS011;10715;48.546;9.896;2022-09-30T02:42:10;9.93;;;6.50;;
21114;SDS011;10715;48.546;9.896;2022-09-30T02:44:51;14.90;;;7.50;;
21114;SDS011;10715;48.546;9.896;2022-09-30T02:50:43;6.33;;;5.43;;
21114;SDS011;10715;48.546;9.896;2022-09-30T02:53:24;8.50;;;6.90;;
21114;SDS011;10715;48.546;9.896;2022-09-30T02:58:20;10.20;;;6.67;;
21114;SDS011;10715;48.546;9.896;2022-09-30T03:00:50;7.23;;;6.50;;
21114;SDS011;10715;48.546;9.896;2022-09-30T03:03:29;7.80;;;6.77;;
21114;SDS011;10715;48.546;9.896;2022-09-30T03:05:59;8.57;;;6.67;;
21114;SDS011;10715;48.546;9.896;2022-09-30T03:08:25;9.23;;;7.17;;
21114;SDS011;10715;48.546;9.896;2022-09-30T03:10:51;10.60;;;6.47;;
21114;SDS011;10715;48.546;9.896;2022-09-30T03:13:32;15.80;;;6.83;;
21114;SDS011;10715;48.546;9.896;2022-09-30T03:22:35;65.83;;;10.67;;
21114;SDS011;10715;48.546;9.896;2022-09-30T03:30:47;33.63;;;9.83;;
21114;SDS011;10715;48.546;9.896;2022-09-30T03:33:48;8.03;;;7.33;;
21114;SDS011;10715;48.546;9.896;2022-09-30T03:44:31;44.27;;;8.73;;
21114;SDS011;10715;48.546;9.896;2022-09-30T03:47:08;26.70;;;6.77;;
21114;SDS011;10715;48.546;9.896;2022-09-30T03:49:59;11.87;;;6.37;;
21114;SDS011;10715;48.546;9.896;2022-09-30T03:52:24;18.03;;;6.23;;
21114;SDS011;10715;48.546;9.896;2022-09-30T03:54:55;6.00;;;4.83;;
21114;SDS011;10715;48.546;9.896;2022-09-30T03:57:24;6.30;;;5.70;;
21114;SDS011;10715;48.546;9.896;2022-09-30T03:59:57;5.90;;;5.40;;
21114;SDS011;10715;48.546;9.896;2022-09-30T04:02:24;6.53;;;4.80;;
21114;SDS011;10715;48.546;9.896;2022-09-30T04:04:50;14.03;;;8.10;;
21114;SDS011;10715;48.546;9.896;2022-09-30T04:07:16;4.97;;;4.30;;
21114;SDS011;10715;48.546;9.896;2022-09-30T04:09:42;4.23;;;3.77;;
21114;SDS011;10715;48.546;9.896;2022-09-30T04:12:07;5.30;;;4.13;;
21114;SDS011;10715;48.546;9.896;2022-09-30T04:14:33;5.40;;;4.87;;
21114;SDS011;10715;48.546;9.896;2022-09-30T04:17:00;5.57;;;4.30;;
21114;SDS011;10715;48.546;9.896;2022-09-30T04:19:26;4.93;;;4.10;;
21114;SDS011;10715;48.546;9.896;2022-09-30T04:21:52;4.53;;;3.97;;
21114;SDS011;10715;48.546;9.896;2022-09-30T04:24:22;5.57;;;5.17;;
21114;SDS011;10715;48.546;9.896;2022-09-30T04:26:49;8.40;;;5.77;;
21114;SDS011;10715;48.546;9.896;2022-09-30T04:29:15;7.70;;;5.33;;
21114;SDS011;10715;48.546;9.896;2022-09-30T04:31:41;5.90;;;3.53;;
21114;SDS011;10715;48.546;9.896;2022-09-30T04:34:06;5.03;;;4.30;;
21114;SDS011;10715;48.546;9.896;2022-09-30T04:36:34;8.23;;;4.57;;
21114;SDS011;10715;48.546;9.896;2022-09-30T04:39:00;4.83;;;4.27;;
21114;SDS011;10715;48.546;9.896;2022-09-30T04:41:25;5.30;;;4.73;;
21114;SDS011;10715;48.546;9.896;2022-09-30T04:43:51;10.23;;;5.40;;
21114;SDS011;10715;48.546;9.896;2022-09-30T04:46:18;5.60;;;5.03;;
21114;SDS011;10715;48.546;9.896;2022-09-30T04:48:45;7.43;;;5.93;;
21114;SDS011;10715;48.546;9.896;2022-09-30T04:51:15;10.13;;;6.20;;
21114;SDS011;10715;48.546;9.896;2022-09-30T04:53:45;8.83;;;6.43;;
21114;SDS011;10715;48.546;9.896;2022-09-30T04:56:11;13.30;;;6.50;;
21114;SDS011;10715;48.546;9.896;2022-09-30T04:58:38;11.77;;;7.40;;
21114;SDS011;10715;48.546;9.896;2022-09-30T05:01:05;15.47;;;8.17;;
21114;SDS011;10715;48.546;9.896;2022-09-30T05:03:35;16.07;;;9.00;;
21114;SDS011;10715;48.546;9.896;2022-09-30T05:06:02;12.90;;;8.07;;
21114;SDS011;10715;48.546;9.896;2022-09-30T05:08:29;15.37;;;9.27;;
21114;SDS011;10715;48.546;9.896;2022-09-30T05:11:05;28.27;;;8.73;;
21114;SDS011;10715;48.546;9.896;2022-09-30T05:13:35;15.77;;;9.47;;
21114;SDS011;10715;48.546;9.896;2022-09-30T05:16:03;42.43;;;9.50;;
21114;SDS011;10715;48.546;9.896;2022-09-30T05:18:30;69.03;;;10.73;;
21114;SDS011;10715;48.546;9.896;2022-09-30T05:20:58;25.00;;;9.37;;
21114;SDS011;10715;48.546;9.896;2022-09-30T05:23:24;12.70;;;8.70;;
21114;SDS011;10715;48.546;9.896;2022-09-30T05:25:51;25.30;;;10.60;;
21114;SDS011;10715;48.546;9.896;2022-09-30T05:28:17;53.67;;;15.93;;
21114;SDS011;10715;48.546;9.896;2022-09-30T05:30:43;20.73;;;10.53;;
21114;SDS011;10715;48.546;9.896;2022-09-30T05:33:10;22.97;;;9.77;;
21114;SDS011;10715;48.546;9.896;2022-09-30T05:35:37;15.33;;;7.93;;
21114;SDS011;10715;48.546;9.896;2022-09-30T05:38:07;27.43;;;10.40;;
21114;SDS011;10715;48.546;9.896;2022-09-30T05:40:35;17.90;;;8.20;;
21114;SDS011;10715;48.546;9.896;2022-09-30T05:43:02;20.27;;;8.43;;
21114;SDS011;10715;48.546;9.896;2022-09-30T05:45:28;55.23;;;10.63;;
21114;SDS011;10715;48.546;9.896;2022-09-30T05:47:53;15.57;;;8.27;;
21114;SDS011;10715;48.546;9.896;2022-09-30T05:50:20;26.50;;;7.70;;
21114;SDS011;10715;48.546;9.896;2022-09-30T05:52:47;8.93;;;6.17;;
21114;SDS011;10715;48.546;9.896;2022-09-30T05:55:14;18.33;;;6.90;;
21114;SDS011;10715;48.546;9.896;2022-09-30T05:57:41;17.97;;;7.10;;
21114;SDS011;10715;48.546;9.896;2022-09-30T06:00:07;11.20;;;7.27;;
21114;SDS011;10715;48.546;9.896;2022-09-30T06:02:33;29.10;;;9.80;;
21114;SDS011;10715;48.546;9.896;2022-09-30T06:05:03;50.93;;;9.70;;
21114;SDS011;10715;48.546;9.896;2022-09-30T06:07:32;18.53;;;8.97;;
21114;SDS011;10715;48.546;9.896;2022-09-30T06:09:58;13.73;;;7.97;;
21114;SDS011;10715;48.546;9.896;2022-09-30T06:12:24;72.83;;;11.80;;
21114;SDS011;10715;48.546;9.896;2022-09-30T06:14:52;9.37;;;7.10;;
21114;SDS011;10715;48.546;9.896;2022-09-30T06:17:19;60.30;;;10.23;;
21114;SDS011;10715;48.546;9.896;2022-09-30T06:19:45;71.80;;;8.90;;
21114;SDS011;10715;48.546;9.896;2022-09-30T06:22:11;15.03;;;5.87;;
21114;SDS011;10715;48.546;9.896;2022-09-30T06:24:36;20.60;;;5.70;;
21114;SDS011;10715;48.546;9.896;2022-09-30T06:27:02;5.13;;;4.40;;
21114;SDS011;10715;48.546;9.896;2022-09-30T06:29:28;73.97;;;9.13;;
21114;SDS011;10715;48.546;9.896;2022-09-30T06:31:54;15.67;;;5.70;;
21114;SDS011;10715;48.546;9.896;2022-09-30T06:34:20;28.30;;;5.83;;
21114;SDS011;10715;48.546;9.896;2022-09-30T06:36:45;16.27;;;6.53;;
21114;SDS011;10715;48.546;9.896;2022-09-30T06:39:11;6.70;;;4.70;;
21114;SDS011;10715;48.546;9.896;2022-09-30T06:41:37;15.10;;;6.50;;
21114;SDS011;10715;48.546;9.896;2022-09-30T06:44:06;7.07;;;4.93;;
21114;SDS011;10715;48.546;9.896;2022-09-30T06:46:32;27.73;;;5.43;;
21114;SDS011;10715;48.546;9.896;2022-09-30T06:48:58;110.77;;;8.43;;
21114;SDS011;10715;48.546;9.896;2022-09-30T06:51:24;86.83;;;6.60;;
21114;SDS011;10715;48.546;9.896;2022-09-30T06:53:51;7.93;;;4.30;;
21114;SDS011;10715;48.546;9.896;2022-09-30T06:56:17;44.90;;;6.27;;
21114;SDS011;10715;48.546;9.896;2022-09-30T06:58:44;25.67;;;5.33;;
21114;SDS011;10715;48.546;9.896;2022-09-30T07:01:10;3.90;;;2.20;;
21114;SDS011;10715;48.546;9.896;2022-09-30T07:03:44;100.47;;;10.33;;
21114;SDS011;10715;48.546;9.896;2022-09-30T07:06:11;38.00;;;4.60;;
21114;SDS011;10715;48.546;9.896;2022-09-30T07:08:39;8.40;;;4.33;;
21114;SDS011;10715;48.546;9.896;2022-09-30T07:11:06;3.80;;;3.00;;
21114;SDS011;10715;48.546;9.896;2022-09-30T07:13:36;11.13;;;3.50;;
21114;SDS011;10715;48.546;9.896;2022-09-30T07:16:03;8.00;;;3.70;;
21114;SDS011;10715;48.546;9.896;2022-09-30T07:18:29;14.93;;;5.60;;
21114;SDS011;10715;48.546;9.896;2022-09-30T07:20:55;6.07;;;4.03;;
21114;SDS011;10715;48.546;9.896;2022-09-30T07:23:21;10.13;;;3.50;;
21114;SDS011;10715;48.546;9.896;2022-09-30T07:25:54;40.83;;;5.83;;
21114;SDS011;10715;48.546;9.896;2022-09-30T07:28:25;7.83;;;4.37;;
21114;SDS011;10715;48.546;9.896;2022-09-30T07:30:55;46.97;;;6.20;;
21114;SDS011;10715;48.546;9.896;2022-09-30T07:33:23;5.83;;;3.70;;
21114;SDS011;10715;48.546;9.896;2022-09-30T07:35:56;94.13;;;6.93;;
21114;SDS011;10715;48.546;9.896;2022-09-30T07:38:24;57.27;;;6.43;;
21114;SDS011;10715;48.546;9.896;2022-09-30T07:43:22;14.67;;;4.07;;
21114;SDS011;10715;48.546;9.896;2022-09-30T07:46:01;2.97;;;2.67;;
21114;SDS011;10715;48.546;9.896;2022-09-30T07:48:35;4.10;;;2.93;;
21114;SDS011;10715;48.546;9.896;2022-09-30T07:51:03;4.97;;;4.20;;
21114;SDS011;10715;48.546;9.896;2022-09-30T07:53:28;9.23;;;4.47;;
21114;SDS011;10715;48.546;9.896;2022-09-30T07:55:54;19.50;;;5.57;;
21114;SDS011;10715;48.546;9.896;2022-09-30T07:58:20;12.23;;;4.90;;
21114;SDS011;10715;48.546;9.896;2022-09-30T08:00:46;10.40;;;6.33;;
21114;SDS011;10715;48.546;9.896;2022-09-30T08:03:15;9.43;;;5.10;;
21114;SDS011;10715;48.546;9.896;2022-09-30T08:05:41;8.00;;;5.53;;
21114;SDS011;10715;48.546;9.896;2022-09-30T08:08:09;10.20;;;5.10;;
21114;SDS011;10715;48.546;9.896;2022-09-30T08:10:36;7.00;;;5.87;;
21114;SDS011;10715;48.546;9.896;2022-09-30T08:13:02;6.87;;;5.00;;
21114;SDS011;10715;48.546;9.896;2022-09-30T08:15:27;6.47;;;4.60;;
21114;SDS011;10715;48.546;9.896;2022-09-30T08:17:53;8.70;;;5.43;;
21114;SDS011;10715;48.546;9.896;2022-09-30T08:20:19;10.20;;;6.17;;
21114;SDS011;10715;48.546;9.896;2022-09-30T08:22:45;6.77;;;3.27;;
21114;SDS011;10715;48.546;9.896;2022-09-30T08:25:10;4.70;;;3.07;;
21114;SDS011;10715;48.546;9.896;2022-09-30T08:27:37;6.20;;;3.67;;
21114;SDS011;10715;48.546;9.896;2022-09-30T08:30:03;6.80;;;4.27;;
21114;SDS011;10715;48.546;9.896;2022-09-30T08:32:30;12.73;;;3.80;;
21114;SDS011;10715;48.546;9.896;2022-09-30T08:34:56;6.60;;;4.60;;
21114;SDS011;10715;48.546;9.896;2022-09-30T08:37:22;6.97;;;5.73;;
21114;SDS011;10715;48.546;9.896;2022-09-30T08:39:48;4.90;;;4.40;;
21114;SDS011;10715;48.546;9.896;2022-09-30T08:42:30;7.33;;;5.00;;
21114;SDS011;10715;48.546;9.896;2022-09-30T08:53:56;8.43;;;5.00;;
21114;SDS011;10715;48.546;9.896;2022-09-30T08:56:28;9.47;;;5.10;;
21114;SDS011;10715;48.546;9.896;2022-09-30T08:58:58;4.67;;;4.20;;
21114;SDS011;10715;48.546;9.896;2022-09-30T09:01:40;6.53;;;4.10;;
21114;SDS011;10715;48.546;9.896;2022-09-30T09:04:10;5.43;;;3.83;;
21114;SDS011;10715;48.546;9.896;2022-09-30T09:09:42;4.80;;;3.07;;
21114;SDS011;10715;48.546;9.896;2022-09-30T09:20:15;5.13;;;3.77;;
21114;SDS011;10715;48.546;9.896;2022-09-30T09:22:45;4.67;;;4.23;;
21114;SDS011;10715;48.546;9.896;2022-09-30T09:25:17;8.00;;;5.10;;
21114;SDS011;10715;48.546;9.896;2022-09-30T09:30:23;6.53;;;4.03;;
21114;SDS011;10715;48.546;9.896;2022-09-30T09:33:20;10.43;;;5.23;;
21114;SDS011;10715;48.546;9.896;2022-09-30T09:36:16;5.63;;;4.47;;
21114;SDS011;10715;48.546;9.896;2022-09-30T09:47:01;7.93;;;6.43;;
21114;SDS011;10715;48.546;9.896;2022-09-30T09:49:36;12.53;;;8.10;;
21114;SDS011;10715;48.546;9.896;2022-09-30T09:52:10;8.17;;;6.60;;
21114;SDS011;10715;48.546;9.896;2022-09-30T09:54:51;29.87;;;16.50;;
21114;SDS011;10715;48.546;9.896;2022-09-30T09:57:21;11.17;;;7.50;;
21114;SDS011;10715;48.546;9.896;2022-09-30T10:02:29;12.47;;;7.53;;
21114;SDS011;10715;48.546;9.896;2022-09-30T10:04:55;12.73;;;7.50;;
21114;SDS011;10715;48.546;9.896;2022-09-30T10:07:29;7.97;;;5.93;;
21114;SDS011;10715;48.546;9.896;2022-09-30T10:10:16;11.30;;;6.37;;
21114;SDS011;10715;48.546;9.896;2022-09-30T10:12:44;11.10;;;7.47;;
21114;SDS011;10715;48.546;9.896;2022-09-30T10:15:21;11.27;;;7.30;;
21114;SDS011;10715;48.546;9.896;2022-09-30T10:17:56;8.40;;;5.80;;
21114;SDS011;10715;48.546;9.896;2022-09-30T10:22:50;9.53;;;7.10;;
21114;SDS011;10715;48.546;9.896;2022-09-30T10:25:26;10.73;;;7.80;;
21114;SDS011;10715;48.546;9.896;2022-09-30T10:32:59;10.60;;;6.90;;
21114;SDS011;10715;48.546;9.896;2022-09-30T10:35:28;14.23;;;7.37;;
21114;SDS011;10715;48.546;9.896;2022-09-30T10:37:54;7.50;;;6.27;;
21114;SDS011;10715;48.546;9.896;2022-09-30T10:40:24;9.10;;;6.73;;
21114;SDS011;10715;48.546;9.896;2022-09-30T10:42:52;10.23;;;7.07;;
21114;SDS011;10715;48.546;9.896;2022-09-30T10:45:20;11.90;;;8.30;;
21114;SDS011;10715;48.546;9.896;2022-09-30T10:47:49;14.00;;;9.27;;
21114;SDS011;10715;48.546;9.896;2022-09-30T10:50:18;10.53;;;8.60;;
21114;SDS011;10715;48.546;9.896;2022-09-30T10:52:49;13.23;;;8.33;;
21114;SDS011;10715;48.546;9.896;2022-09-30T10:57:49;14.97;;;9.53;;
21114;SDS011;10715;48.546;9.896;2022-09-30T11:00:22;8.57;;;6.93;;
21114;SDS011;10715;48.546;9.896;2022-09-30T11:05:47;9.30;;;8.13;;
21114;SDS011;10715;48.546;9.896;2022-09-30T11:16:17;10.27;;;7.00;;
21114;SDS011;10715;48.546;9.896;2022-09-30T11:18:55;12.43;;;7.70;;
21114;SDS011;10715;48.546;9.896;2022-09-30T11:29:37;9.50;;;6.93;;
21114;SDS011;10715;48.546;9.896;2022-09-30T11:35:18;17.53;;;8.80;;
21114;SDS011;10715;48.546;9.896;2022-09-30T11:42:52;17.60;;;8.90;;
21114;SDS011;10715;48.546;9.896;2022-09-30T12:00:14;12.07;;;7.57;;
21114;SDS011;10715;48.546;9.896;2022-09-30T12:02:50;8.80;;;7.27;;
21114;SDS011;10715;48.546;9.896;2022-09-30T12:05:26;8.60;;;6.93;;
21114;SDS011;10715;48.546;9.896;2022-09-30T12:10:36;10.83;;;7.47;;
21114;SDS011;10715;48.546;9.896;2022-09-30T12:13:15;7.80;;;6.67;;
21114;SDS011;10715;48.546;9.896;2022-09-30T12:15:44;10.60;;;6.70;;
21114;SDS011;10715;48.546;9.896;2022-09-30T12:18:13;10.37;;;7.23;;
21114;SDS011;10715;48.546;9.896;2022-09-30T12:20:49;12.50;;;6.17;;
21114;SDS011;10715;48.546;9.896;2022-09-30T12:23:20;13.40;;;6.70;;
21114;SDS011;10715;48.546;9.896;2022-09-30T12:26:00;5.13;;;4.63;;
21114;SDS011;10715;48.546;9.896;2022-09-30T12:34:15;12.47;;;7.00;;
21114;SDS011;10715;48.546;9.896;2022-09-30T12:48:10;11.03;;;7.53;;
21114;SDS011;10715;48.546;9.896;2022-09-30T12:50:49;8.67;;;6.67;;
21114;SDS011;10715;48.546;9.896;2022-09-30T12:53:33;10.93;;;6.50;;
21114;SDS011;10715;48.546;9.896;2022-09-30T12:56:12;8.13;;;6.50;;
21114;SDS011;10715;48.546;9.896;2022-09-30T12:58:44;6.87;;;5.87;;
21114;SDS011;10715;48.546;9.896;2022-09-30T13:01:14;10.63;;;6.93;;
21114;SDS011;10715;48.546;9.896;2022-09-30T13:03:51;10.57;;;7.40;;
21114;SDS011;10715;48.546;9.896;2022-09-30T13:11:47;9.77;;;8.03;;
21114;SDS011;10715;48.546;9.896;2022-09-30T13:14:39;9.70;;;5.47;;
21114;SDS011;10715;48.546;9.896;2022-09-30T13:43:12;11.97;;;6.90;;
21114;SDS011;10715;48.546;9.896;2022-09-30T13:45:46;12.63;;;6.27;;
21114;SDS011;10715;48.546;9.896;2022-09-30T13:48:15;10.83;;;6.90;;
21114;SDS011;10715;48.546;9.896;2022-09-30T13:50:47;11.40;;;5.87;;
21114;SDS011;10715;48.546;9.896;2022-09-30T13:53:18;6.20;;;5.70;;
21114;SDS011;10715;48.546;9.896;2022-09-30T13:55:49;7.60;;;6.60;;
21114;SDS011;10715;48.546;9.896;2022-09-30T13:58:28;9.97;;;6.37;;
21114;SDS011;10715;48.546;9.896;2022-09-30T14:09:43;15.53;;;6.53;;
21114;SDS011;10715;48.546;9.896;2022-09-30T14:15:50;16.57;;;8.07;;
21114;SDS011;10715;48.546;9.896;2022-09-30T14:20:55;7.70;;;6.23;;
21114;SDS011;10715;48.546;9.896;2022-09-30T14:23:31;9.47;;;8.47;;
21114;SDS011;10715;48.546;9.896;2022-09-30T14:26:01;9.10;;;5.90;;
21114;SDS011;10715;48.546;9.896;2022-09-30T14:28:50;14.47;;;7.43;;
21114;SDS011;10715;48.546;9.896;2022-09-30T14:31:24;12.73;;;6.90;;
21114;SDS011;10715;48.546;9.896;2022-09-30T14:33:50;11.37;;;7.70;;
21114;SDS011;10715;48.546;9.896;2022-09-30T14:36:17;12.10;;;7.50;;
21114;SDS011;10715;48.546;9.896;2022-09-30T14:38:46;13.33;;;6.17;;
21114;SDS011;10715;48.546;9.896;2022-09-30T14:41:17;9.67;;;8.23;;
21114;SDS011;10715;48.546;9.896;2022-09-30T14:43:45;10.00;;;6.50;;
21114;SDS011;10715;48.546;9.896;2022-09-30T14:48:50;11.00;;;6.83;;
21114;SDS011;10715;48.546;9.896;2022-09-30T14:51:18;12.13;;;6.80;;
21114;SDS011;10715;48.546;9.896;2022-09-30T14:53:52;10.30;;;7.47;;
21114;SDS011;10715;48.546;9.896;2022-09-30T14:56:27;9.87;;;6.60;;
21114;SDS011;10715;48.546;9.896;2022-09-30T14:58:54;9.23;;;6.30;;
21114;SDS011;10715;48.546;9.896;2022-09-30T15:01:22;12.50;;;6.47;;
21114;SDS011;10715;48.546;9.896;2022-09-30T15:04:00;8.47;;;6.30;;
21114;SDS011;10715;48.546;9.896;2022-09-30T15:06:32;8.30;;;7.00;;
21114;SDS011;10715;48.546;9.896;2022-09-30T15:09:07;7.57;;;6.17;;
21114;SDS011;10715;48.546;9.896;2022-09-30T15:12:15;11.17;;;8.10;;
21114;SDS011;10715;48.546;9.896;2022-09-30T15:14:48;5.97;;;5.23;;
21114;SDS011;10715;48.546;9.896;2022-09-30T15:17:24;9.43;;;7.63;;
21114;SDS011;10715;48.546;9.896;2022-09-30T15:19:53;10.60;;;7.80;;
21114;SDS011;10715;48.546;9.896;2022-09-30T15:22:20;10.63;;;8.47;;
21114;SDS011;10715;48.546;9.896;2022-09-30T15:24:50;10.07;;;8.10;;
21114;SDS011;10715;48.546;9.896;2022-09-30T15:27:21;11.87;;;6.83;;
21114;SDS011;10715;48.546;9.896;2022-09-30T15:30:32;12.33;;;6.70;;
21114;SDS011;10715;48.546;9.896;2022-09-30T15:32:38;12.37;;;6.80;;
21114;SDS011;10715;48.546;9.896;2022-09-30T15:35:05;18.00;;;13.47;;
21114;SDS011;10715;48.546;9.896;2022-09-30T15:37:36;12.10;;;8.13;;
21114;SDS011;10715;48.546;9.896;2022-09-30T15:40:02;12.00;;;8.27;;
21114;SDS011;10715;48.546;9.896;2022-09-30T15:43:12;14.40;;;9.10;;
21114;SDS011;10715;48.546;9.896;2022-09-30T15:45:43;20.83;;;9.40;;
21114;SDS011;10715;48.546;9.896;2022-09-30T15:50:52;12.60;;;8.20;;
21114;SDS011;10715;48.546;9.896;2022-09-30T15:53:29;9.13;;;7.90;;
21114;SDS011;10715;48.546;9.896;2022-09-30T15:56:16;14.90;;;7.33;;
21114;SDS011;10715;48.546;9.896;2022-09-30T15:58:53;15.73;;;9.40;;
21114;SDS011;10715;48.546;9.896;2022-09-30T16:01:24;10.97;;;8.07;;
21114;SDS011;10715;48.546;9.896;2022-09-30T16:04:03;12.80;;;7.87;;
21114;SDS011;10715;48.546;9.896;2022-09-30T16:09:19;12.00;;;7.57;;
21114;SDS011;10715;48.546;9.896;2022-09-30T16:17:14;17.10;;;8.97;;
21114;SDS011;10715;48.546;9.896;2022-09-30T16:19:48;11.73;;;6.97;;
21114;SDS011;10715;48.546;9.896;2022-09-30T16:23:13;9.80;;;7.83;;
21114;SDS011;10715;48.546;9.896;2022-09-30T16:28:10;16.20;;;10.13;;
21114;SDS011;10715;48.546;9.896;2022-09-30T16:30:46;21.03;;;10.63;;
21114;SDS011;10715;48.546;9.896;2022-09-30T16:33:14;23.23;;;12.77;;
21114;SDS011;10715;48.546;9.896;2022-09-30T16:35:41;27.67;;;13.67;;
21114;SDS011;10715;48.546;9.896;2022-09-30T16:38:08;28.37;;;11.23;;
21114;SDS011;10715;48.546;9.896;2022-09-30T16:40:37;27.73;;;15.10;;
21114;SDS011;10715;48.546;9.896;2022-09-30T16:43:04;22.27;;;13.07;;
21114;SDS011;10715;48.546;9.896;2022-09-30T16:45:31;19.53;;;10.50;;
21114;SDS011;10715;48.546;9.896;2022-09-30T16:47:57;23.10;;;12.93;;
21114;SDS011;10715;48.546;9.896;2022-09-30T16:50:41;26.30;;;13.80;;
21114;SDS011;10715;48.546;9.896;2022-09-30T16:53:17;21.77;;;12.40;;
21114;SDS011;10715;48.546;9.896;2022-09-30T16:55:43;21.60;;;12.23;;
21114;SDS011;10715;48.546;9.896;2022-09-30T16:58:11;26.60;;;11.60;;
21114;SDS011;10715;48.546;9.896;2022-09-30T17:00:39;23.03;;;11.20;;
21114;SDS011;10715;48.546;9.896;2022-09-30T17:03:10;19.00;;;13.50;;
21114;SDS011;10715;48.546;9.896;2022-09-30T17:05:40;27.83;;;14.37;;
21114;SDS011;10715;48.546;9.896;2022-09-30T17:08:09;26.37;;;13.30;;
21114;SDS011;10715;48.546;9.896;2022-09-30T17:10:40;34.30;;;15.10;;
21114;SDS011;10715;48.546;9.896;2022-09-30T17:13:07;21.83;;;12.67;;
21114;SDS011;10715;48.546;9.896;2022-09-30T17:15:33;25.50;;;15.27;;
21114;SDS011;10715;48.546;9.896;2022-09-30T17:18:03;24.33;;;13.80;;
21114;SDS011;10715;48.546;9.896;2022-09-30T17:20:34;33.17;;;16.60;;
21114;SDS011;10715;48.546;9.896;2022-09-30T17:23:00;30.57;;;16.37;;
21114;SDS011;10715;48.546;9.896;2022-09-30T17:25:26;23.50;;;13.17;;
21114;SDS011;10715;48.546;9.896;2022-09-30T17:27:51;29.87;;;14.23;;
21114;SDS011;10715;48.546;9.896;2022-09-30T17:30:18;26.27;;;13.83;;
21114;SDS011;10715;48.546;9.896;2022-09-30T17:32:45;29.60;;;14.73;;
21114;SDS011;10715;48.546;9.896;2022-09-30T17:35:11;25.40;;;12.37;;
21114;SDS011;10715;48.546;9.896;2022-09-30T17:37:37;20.40;;;12.00;;
21114;SDS011;10715;48.546;9.896;2022-09-30T17:40:06;23.37;;;13.20;;
21114;SDS011;10715;48.546;9.896;2022-09-30T17:42:51;35.73;;;17.47;;
21114;SDS011;10715;48.546;9.896;2022-09-30T17:45:34;25.67;;;14.57;;
21114;SDS011;10715;48.546;9.896;2022-09-30T17:48:02;30.87;;;14.47;;
21114;SDS011;10715;48.546;9.896;2022-09-30T17:50:29;26.37;;;15.70;;
21114;SDS011;10715;48.546;9.896;2022-09-30T17:52:54;27.63;;;14.83;;
21114;SDS011;10715;48.546;9.896;2022-09-30T17:55:20;20.03;;;12.30;;
21114;SDS011;10715;48.546;9.896;2022-09-30T17:57:46;29.50;;;14.40;;
21114;SDS011;10715;48.546;9.896;2022-09-30T18:00:11;20.50;;;11.90;;
21114;SDS011;10715;48.546;9.896;2022-09-30T18:02:37;24.20;;;13.23;;
21114;SDS011;10715;48.546;9.896;2022-09-30T18:05:04;30.33;;;13.00;;
21114;SDS011;10715;48.546;9.896;2022-09-30T18:07:30;32.57;;;13.67;;
21114;SDS011;10715;48.546;9.896;2022-09-30T18:09:56;27.77;;;14.23;;
21114;SDS011;10715;48.546;9.896;2022-09-30T18:12:22;20.10;;;12.40;;
21114;SDS011;10715;48.546;9.896;2022-09-30T18:14:47;24.30;;;14.07;;
21114;SDS011;10715;48.546;9.896;2022-09-30T18:17:13;30.40;;;13.70;;
21114;SDS011;10715;48.546;9.896;2022-09-30T18:19:39;18.47;;;12.00;;
21114;SDS011;10715;48.546;9.896;2022-09-30T18:22:04;23.47;;;12.30;;
21114;SDS011;10715;48.546;9.896;2022-09-30T18:24:30;23.00;;;12.63;;
21114;SDS011;10715;48.546;9.896;2022-09-30T18:27:15;29.77;;;13.27;;
21114;SDS011;10715;48.546;9.896;2022-09-30T18:29:41;22.23;;;11.53;;
21114;SDS011;10715;48.546;9.896;2022-09-30T18:32:06;21.50;;;11.40;;
21114;SDS011;10715;48.546;9.896;2022-09-30T18:34:32;30.23;;;13.10;;
21114;SDS011;10715;48.546;9.896;2022-09-30T18:36:58;28.77;;;12.23;;
21114;SDS011;10715;48.546;9.896;2022-09-30T18:39:32;18.10;;;11.63;;
21114;SDS011;10715;48.546;9.896;2022-09-30T18:41:59;30.30;;;13.73;;
21114;SDS011;10715;48.546;9.896;2022-09-30T18:44:25;27.13;;;12.90;;
21114;SDS011;10715;48.546;9.896;2022-09-30T18:46:52;16.27;;;10.30;;